sensor_id;sensor_type;location;lat;lon;timestamp;pressure;altitude;pressure_sealevel;temperature;humidity
77706;BME280;66874;45.274;5.880;2023-12-29T00:01:09;99665.75;;;4.55;80.99
77706;BME280;66874;45.274;5.880;2023-12-29T00:03:35;99664.88;;;4.56;81.17
77706;BME280;66874;45.274;5.880;2023-12-29T00:06:02;99658.88;;;4.58;80.95
77706;BME280;66874;45.274;5.880;2023-12-29T00:08:28;99653.72;;;4.60;81.02
77706;BME280;66874;45.274;5.880;2023-12-29T00:10:53;99657.22;;;4.62;80.80
77706;BME280;66874;45.274;5.880;2023-12-29T00:13:18;99645.06;;;4.61;80.71
77706;BME280;66874;45.274;5.880;2023-12-29T00:15:51;99636.44;;;4.60;80.86
77706;BME280;66874;45.274;5.880;2023-12-29T00:18:17;99636.44;;;4.60;81.01
77706;BME280;66874;45.274;5.880;2023-12-29T00:20:42;99632.09;;;4.58;80.95
77706;BME280;66874;45.274;5.880;2023-12-29T00:23:07;99625.16;;;4.55;81.13
77706;BME280;66874;45.274;5.880;2023-12-29T00:25:36;99613.00;;;4.51;81.07
77706;BME280;66874;45.274;5.880;2023-12-29T00:28:02;99615.59;;;4.51;81.18
77706;BME280;66874;45.274;5.880;2023-12-29T00:30:28;99616.47;;;4.53;81.05
77706;BME280;66874;45.274;5.880;2023-12-29T00:32:57;99607.88;;;4.56;81.05
77706;BME280;66874;45.274;5.880;2023-12-29T00:35:23;99610.50;;;4.57;81.10
77706;BME280;66874;45.274;5.880;2023-12-29T00:37:49;99604.44;;;4.57;80.96
77706;BME280;66874;45.274;5.880;2023-12-29T00:40:15;99601.84;;;4.55;81.09
77706;BME280;66874;45.274;5.880;2023-12-29T00:42:41;99602.69;;;4.56;81.24
77706;BME280;66874;45.274;5.880;2023-12-29T00:45:07;99604.41;;;4.54;81.14
77706;BME280;66874;45.274;5.880;2023-12-29T00:47:33;99604.38;;;4.52;80.96
77706;BME280;66874;45.274;5.880;2023-12-29T00:49:58;99606.97;;;4.51;81.30
77706;BME280;66874;45.274;5.880;2023-12-29T00:52:23;99600.03;;;4.50;81.34
77706;BME280;66874;45.274;5.880;2023-12-29T00:54:49;99610.38;;;4.48;81.14
77706;BME280;66874;45.274;5.880;2023-12-29T00:57:14;99612.09;;;4.48;81.22
77706;BME280;66874;45.274;5.880;2023-12-29T00:59:41;99607.75;;;4.47;81.32
77706;BME280;66874;45.274;5.880;2023-12-29T01:02:06;99611.16;;;4.44;81.14
77706;BME280;66874;45.274;5.880;2023-12-29T01:04:33;99611.16;;;4.44;81.39
77706;BME280;66874;45.274;5.880;2023-12-29T01:06:58;99611.13;;;4.41;81.31
77706;BME280;66874;45.274;5.880;2023-12-29T01:09:24;99616.28;;;4.39;81.41
77706;BME280;66874;45.274;5.880;2023-12-29T01:11:49;99606.78;;;4.38;81.45
77706;BME280;66874;45.274;5.880;2023-12-29T01:14:14;99600.75;;;4.39;81.58
77706;BME280;66874;45.274;5.880;2023-12-29T01:16:41;99606.81;;;4.41;81.58
77706;BME280;66874;45.274;5.880;2023-12-29T01:19:07;99614.63;;;4.43;81.75
77706;BME280;66874;45.274;5.880;2023-12-29T01:21:32;99609.50;;;4.46;81.54
77706;BME280;66874;45.274;5.880;2023-12-29T01:24:02;99616.41;;;4.49;81.47
77706;BME280;66874;45.274;5.880;2023-12-29T01:26:29;99625.91;;;4.48;81.57
77706;BME280;66874;45.274;5.880;2023-12-29T01:28:55;99630.22;;;4.48;81.33
77706;BME280;66874;45.274;5.880;2023-12-29T01:31:20;99624.13;;;4.43;81.61
77706;BME280;66874;45.274;5.880;2023-12-29T01:33:45;99628.44;;;4.42;81.42
77706;BME280;66874;45.274;5.880;2023-12-29T01:36:17;99625.84;;;4.42;81.46
77706;BME280;66874;45.274;5.880;2023-12-29T01:38:42;99625.78;;;4.40;81.46
77706;BME280;66874;45.274;5.880;2023-12-29T01:41:08;99619.69;;;4.37;81.25
77706;BME280;66874;45.274;5.880;2023-12-29T01:43:33;99623.09;;;4.33;81.47
77706;BME280;66874;45.274;5.880;2023-12-29T01:45:58;99627.41;;;4.31;81.68
77706;BME280;66874;45.274;5.880;2023-12-29T01:48:24;99621.31;;;4.30;81.72
77706;BME280;66874;45.274;5.880;2023-12-29T01:50:50;99617.00;;;4.28;81.61
77706;BME280;66874;45.274;5.880;2023-12-29T01:53:16;99622.97;;;4.25;81.63
77706;BME280;66874;45.274;5.880;2023-12-29T01:55:41;99622.09;;;4.23;81.87
77706;BME280;66874;45.274;5.880;2023-12-29T01:58:07;99619.47;;;4.22;81.74
77706;BME280;66874;45.274;5.880;2023-12-29T02:00:33;99631.53;;;4.20;81.79
77706;BME280;66874;45.274;5.880;2023-12-29T02:03:00;99616.00;;;4.20;81.95
77706;BME280;66874;45.274;5.880;2023-12-29T02:05:26;99611.69;;;4.22;81.73
77706;BME280;66874;45.274;5.880;2023-12-29T02:07:54;99618.66;;;4.24;81.82
77706;BME280;66874;45.274;5.880;2023-12-29T02:10:20;99615.25;;;4.27;81.64
77706;BME280;66874;45.274;5.880;2023-12-29T02:12:47;99626.47;;;4.27;81.78
77706;BME280;66874;45.274;5.880;2023-12-29T02:15:13;99614.41;;;4.29;81.93
77706;BME280;66874;45.274;5.880;2023-12-29T02:17:51;99619.59;;;4.29;81.83
77706;BME280;66874;45.274;5.880;2023-12-29T02:20:20;99617.84;;;4.28;81.96
77706;BME280;66874;45.274;5.880;2023-12-29T02:22:45;99621.31;;;4.27;81.67
77706;BME280;66874;45.274;5.880;2023-12-29T02:25:11;99622.13;;;4.26;81.88
77706;BME280;66874;45.274;5.880;2023-12-29T02:27:57;99617.75;;;4.21;81.81
77706;BME280;66874;45.274;5.880;2023-12-29T02:33:16;99621.13;;;4.16;81.96
77706;BME280;66874;45.274;5.880;2023-12-29T02:35:44;99620.22;;;4.14;81.94
77706;BME280;66874;45.274;5.880;2023-12-29T02:38:11;99615.91;;;4.13;82.11
77706;BME280;66874;45.274;5.880;2023-12-29T02:40:36;99621.06;;;4.13;82.09
77706;BME280;66874;45.274;5.880;2023-12-29T02:43:02;99613.25;;;4.10;82.07
77706;BME280;66874;45.274;5.880;2023-12-29T02:45:27;99621.03;;;4.10;82.04
77706;BME280;66874;45.274;5.880;2023-12-29T02:47:53;99617.63;;;4.13;82.08
77706;BME280;66874;45.274;5.880;2023-12-29T02:50:18;99618.47;;;4.13;82.12
77706;BME280;66874;45.274;5.880;2023-12-29T02:52:44;99615.91;;;4.15;82.30
77706;BME280;66874;45.274;5.880;2023-12-29T02:55:09;99613.38;;;4.18;82.03
77706;BME280;66874;45.274;5.880;2023-12-29T02:57:35;99607.28;;;4.14;82.15
77706;BME280;66874;45.274;5.880;2023-12-29T03:00:00;99608.13;;;4.12;82.16
77706;BME280;66874;45.274;5.880;2023-12-29T03:02:25;99601.16;;;4.08;82.02
77706;BME280;66874;45.274;5.880;2023-12-29T03:04:51;99601.13;;;4.06;82.34
77706;BME280;66874;45.274;5.880;2023-12-29T03:07:16;99600.22;;;4.04;82.07
77706;BME280;66874;45.274;5.880;2023-12-29T03:09:42;99597.59;;;4.03;82.38
77706;BME280;66874;45.274;5.880;2023-12-29T03:12:07;99593.28;;;4.02;82.52
77706;BME280;66874;45.274;5.880;2023-12-29T03:14:33;99585.50;;;4.02;82.18
77706;BME280;66874;45.274;5.880;2023-12-29T03:16:58;99580.34;;;4.02;82.32
77706;BME280;66874;45.274;5.880;2023-12-29T03:19:24;99573.44;;;4.02;82.55
77706;BME280;66874;45.274;5.880;2023-12-29T03:21:50;99566.56;;;4.04;82.39
77706;BME280;66874;45.274;5.880;2023-12-29T03:24:16;99565.72;;;4.05;82.18
77706;BME280;66874;45.274;5.880;2023-12-29T03:26:41;99566.59;;;4.06;82.39
77706;BME280;66874;45.274;5.880;2023-12-29T03:29:06;99555.38;;;4.05;82.54
77706;BME280;66874;45.274;5.880;2023-12-29T03:31:32;99557.09;;;4.05;82.58
77706;BME280;66874;45.274;5.880;2023-12-29T03:33:57;99559.63;;;4.02;82.53
77706;BME280;66874;45.274;5.880;2023-12-29T03:36:23;99555.31;;;4.02;82.47
77706;BME280;66874;45.274;5.880;2023-12-29T03:38:48;99559.63;;;4.03;82.62
77706;BME280;66874;45.274;5.880;2023-12-29T03:41:14;99559.69;;;4.05;82.49
77706;BME280;66874;45.274;5.880;2023-12-29T03:43:39;99557.09;;;4.06;82.45
77706;BME280;66874;45.274;5.880;2023-12-29T03:46:18;99564.81;;;4.02;82.52
77706;BME280;66874;45.274;5.880;2023-12-29T03:48:43;99569.88;;;3.96;82.56
77706;BME280;66874;45.274;5.880;2023-12-29T03:51:09;99568.94;;;3.90;82.75
77706;BME280;66874;45.274;5.880;2023-12-29T03:53:34;99576.66;;;3.87;82.84
77706;BME280;66874;45.274;5.880;2023-12-29T03:56:04;99575.72;;;3.81;83.26
77706;BME280;66874;45.274;5.880;2023-12-29T03:58:29;99579.09;;;3.77;83.41
77706;BME280;66874;45.274;5.880;2023-12-29T04:00:55;99576.53;;;3.78;83.23
77706;BME280;66874;45.274;5.880;2023-12-29T04:03:20;99578.31;;;3.84;83.16
77706;BME280;66874;45.274;5.880;2023-12-29T04:05:45;99581.03;;;3.90;82.98
77706;BME280;66874;45.274;5.880;2023-12-29T04:08:11;99581.09;;;3.95;83.29
77706;BME280;66874;45.274;5.880;2023-12-29T04:10:37;99579.41;;;3.97;83.06
77706;BME280;66874;45.274;5.880;2023-12-29T04:13:02;99582.91;;;4.00;82.90
77706;BME280;66874;45.274;5.880;2023-12-29T04:15:28;99581.19;;;4.02;82.99
77706;BME280;66874;45.274;5.880;2023-12-29T04:17:53;99572.63;;;4.06;83.11
77706;BME280;66874;45.274;5.880;2023-12-29T04:20:19;99571.81;;;4.09;82.89
77706;BME280;66874;45.274;5.880;2023-12-29T04:22:44;99566.69;;;4.12;82.89
77706;BME280;66874;45.274;5.880;2023-12-29T04:25:09;99566.69;;;4.12;83.06
77706;BME280;66874;45.274;5.880;2023-12-29T04:27:35;99569.28;;;4.13;82.85
77706;BME280;66874;45.274;5.880;2023-12-29T04:30:00;99568.47;;;4.16;82.74
77706;BME280;66874;45.274;5.880;2023-12-29T04:32:26;99563.34;;;4.19;82.92
77706;BME280;66874;45.274;5.880;2023-12-29T04:34:51;99570.25;;;4.20;83.06
77706;BME280;66874;45.274;5.880;2023-12-29T04:37:16;99570.28;;;4.22;82.85
77706;BME280;66874;45.274;5.880;2023-12-29T04:39:42;99565.97;;;4.22;82.77
77706;BME280;66874;45.274;5.880;2023-12-29T04:42:07;99568.53;;;4.19;82.98
77706;BME280;66874;45.274;5.880;2023-12-29T04:44:33;99572.78;;;4.15;82.87
77706;BME280;66874;45.274;5.880;2023-12-29T04:46:58;99570.16;;;4.14;83.11
77706;BME280;66874;45.274;5.880;2023-12-29T04:49:23;99562.31;;;4.09;83.04
77706;BME280;66874;45.274;5.880;2023-12-29T04:51:49;99574.34;;;4.04;83.24
77706;BME280;66874;45.274;5.880;2023-12-29T04:54:14;99566.53;;;4.03;83.12
77706;BME280;66874;45.274;5.880;2023-12-29T04:56:39;99575.22;;;4.05;83.15
77706;BME280;66874;45.274;5.880;2023-12-29T04:59:05;99579.53;;;4.04;83.50
77706;BME280;66874;45.274;5.880;2023-12-29T05:01:30;99585.56;;;4.05;83.30
77706;BME280;66874;45.274;5.880;2023-12-29T05:03:55;99585.56;;;4.05;83.71
77706;BME280;66874;45.274;5.880;2023-12-29T05:06:21;99582.13;;;4.06;83.24
77706;BME280;66874;45.274;5.880;2023-12-29T05:08:46;99593.38;;;4.08;83.30
77706;BME280;66874;45.274;5.880;2023-12-29T05:11:11;99596.84;;;4.10;83.35
77706;BME280;66874;45.274;5.880;2023-12-29T05:13:37;99603.75;;;4.09;83.21
77706;BME280;66874;45.274;5.880;2023-12-29T05:16:02;99592.53;;;4.10;83.41
77706;BME280;66874;45.274;5.880;2023-12-29T05:18:29;99593.44;;;4.12;83.23
77706;BME280;66874;45.274;5.880;2023-12-29T05:20:56;99595.19;;;4.13;83.50
77706;BME280;66874;45.274;5.880;2023-12-29T05:23:21;99602.13;;;4.16;83.25
77706;BME280;66874;45.274;5.880;2023-12-29T05:25:46;99607.38;;;4.19;83.51
77706;BME280;66874;45.274;5.880;2023-12-29T05:28:12;99611.69;;;4.20;83.29
77706;BME280;66874;45.274;5.880;2023-12-29T05:30:37;99603.06;;;4.23;83.49
77706;BME280;66874;45.274;5.880;2023-12-29T05:33:03;99603.13;;;4.26;83.37
77706;BME280;66874;45.274;5.880;2023-12-29T05:35:28;99602.31;;;4.27;83.39
77706;BME280;66874;45.274;5.880;2023-12-29T05:37:53;99595.41;;;4.27;83.44
77706;BME280;66874;45.274;5.880;2023-12-29T05:40:19;99596.28;;;4.29;83.30
77706;BME280;66874;45.274;5.880;2023-12-29T05:42:44;99585.06;;;4.30;83.28
77706;BME280;66874;45.274;5.880;2023-12-29T05:45:09;99585.97;;;4.32;83.24
77706;BME280;66874;45.274;5.880;2023-12-29T05:47:35;99591.19;;;4.35;83.21
77706;BME280;66874;45.274;5.880;2023-12-29T05:50:00;99577.38;;;4.35;83.09
77706;BME280;66874;45.274;5.880;2023-12-29T05:52:26;99584.28;;;4.36;83.42
77706;BME280;66874;45.274;5.880;2023-12-29T05:54:51;99586.06;;;4.38;83.36
77706;BME280;66874;45.274;5.880;2023-12-29T05:57:16;99593.84;;;4.40;83.36
77706;BME280;66874;45.274;5.880;2023-12-29T05:59:42;99593.84;;;4.41;83.33
77706;BME280;66874;45.274;5.880;2023-12-29T06:02:07;99593.94;;;4.46;83.35
77706;BME280;66874;45.274;5.880;2023-12-29T06:04:32;99593.03;;;4.43;83.09
77706;BME280;66874;45.274;5.880;2023-12-29T06:06:58;99605.13;;;4.44;83.19
77706;BME280;66874;45.274;5.880;2023-12-29T06:09:23;99604.25;;;4.43;83.25
77706;BME280;66874;45.274;5.880;2023-12-29T06:11:49;99613.72;;;4.41;83.58
77706;BME280;66874;45.274;5.880;2023-12-29T06:14:15;99616.31;;;4.41;83.32
77706;BME280;66874;45.274;5.880;2023-12-29T06:16:40;99615.47;;;4.42;83.31
77706;BME280;66874;45.274;5.880;2023-12-29T06:19:05;99618.03;;;4.40;83.54
77706;BME280;66874;45.274;5.880;2023-12-29T06:21:31;99621.47;;;4.39;83.54
77706;BME280;66874;45.274;5.880;2023-12-29T06:23:56;99626.59;;;4.35;83.62
77706;BME280;66874;45.274;5.880;2023-12-29T06:26:21;99630.06;;;4.35;83.50
77706;BME280;66874;45.274;5.880;2023-12-29T06:28:48;99617.97;;;4.36;83.66
77706;BME280;66874;45.274;5.880;2023-12-29T06:31:14;99619.69;;;4.37;83.57
77706;BME280;66874;45.274;5.880;2023-12-29T06:33:43;99628.34;;;4.37;83.38
77706;BME280;66874;45.274;5.880;2023-12-29T06:36:09;99623.19;;;4.39;83.40
77706;BME280;66874;45.274;5.880;2023-12-29T06:38:35;99630.97;;;4.40;83.52
77706;BME280;66874;45.274;5.880;2023-12-29T06:41:03;99631.88;;;4.43;83.54
77706;BME280;66874;45.274;5.880;2023-12-29T06:43:29;99633.63;;;4.44;83.56
77706;BME280;66874;45.274;5.880;2023-12-29T06:45:54;99635.41;;;4.48;83.37
77706;BME280;66874;45.274;5.880;2023-12-29T06:48:20;99630.28;;;4.51;83.44
77706;BME280;66874;45.274;5.880;2023-12-29T06:50:45;99627.75;;;4.55;83.47
77706;BME280;66874;45.274;5.880;2023-12-29T06:53:11;99626.94;;;4.61;83.29
77706;BME280;66874;45.274;5.880;2023-12-29T06:55:36;99624.41;;;4.64;83.31
77706;BME280;66874;45.274;5.880;2023-12-29T06:58:03;99630.50;;;4.68;83.38
77706;BME280;66874;45.274;5.880;2023-12-29T07:00:28;99633.94;;;4.68;83.36
77706;BME280;66874;45.274;5.880;2023-12-29T07:02:53;99635.69;;;4.68;83.29
77706;BME280;66874;45.274;5.880;2023-12-29T07:05:19;99639.06;;;4.63;83.35
77706;BME280;66874;45.274;5.880;2023-12-29T07:07:44;99643.38;;;4.61;83.31
77706;BME280;66874;45.274;5.880;2023-12-29T07:10:12;99647.66;;;4.58;83.37
77706;BME280;66874;45.274;5.880;2023-12-29T07:12:38;99647.56;;;4.53;83.38
77706;BME280;66874;45.274;5.880;2023-12-29T07:15:04;99644.09;;;4.51;83.52
77706;BME280;66874;45.274;5.880;2023-12-29T07:17:29;99642.38;;;4.53;83.73
77706;BME280;66874;45.274;5.880;2023-12-29T07:19:55;99645.88;;;4.55;83.63
77706;BME280;66874;45.274;5.880;2023-12-29T07:22:20;99644.19;;;4.57;83.70
77706;BME280;66874;45.274;5.880;2023-12-29T07:24:45;99642.47;;;4.58;83.62
77706;BME280;66874;45.274;5.880;2023-12-29T07:27:11;99635.63;;;4.61;83.69
77706;BME280;66874;45.274;5.880;2023-12-29T07:29:36;99633.03;;;4.61;83.62
77706;BME280;66874;45.274;5.880;2023-12-29T07:32:01;99641.66;;;4.62;83.74
77706;BME280;66874;45.274;5.880;2023-12-29T07:34:27;99650.31;;;4.62;83.60
77706;BME280;66874;45.274;5.880;2023-12-29T07:36:52;99637.34;;;4.64;83.66
77706;BME280;66874;45.274;5.880;2023-12-29T07:39:18;99639.13;;;4.67;83.80
77706;BME280;66874;45.274;5.880;2023-12-29T07:41:44;99642.59;;;4.69;83.77
77706;BME280;66874;45.274;5.880;2023-12-29T07:44:12;99640.03;;;4.70;83.67
77706;BME280;66874;45.274;5.880;2023-12-29T07:46:39;99640.91;;;4.72;83.98
77706;BME280;66874;45.274;5.880;2023-12-29T07:49:05;99639.22;;;4.74;83.81
77706;BME280;66874;45.274;5.880;2023-12-29T07:51:30;99645.28;;;4.76;83.80
77706;BME280;66874;45.274;5.880;2023-12-29T07:53:56;99641.84;;;4.76;83.90
77706;BME280;66874;45.274;5.880;2023-12-29T07:56:22;99647.88;;;4.76;84.05
77706;BME280;66874;45.274;5.880;2023-12-29T07:58:47;99644.47;;;4.79;84.05
77706;BME280;66874;45.274;5.880;2023-12-29T08:01:12;99635.84;;;4.80;84.07
77706;BME280;66874;45.274;5.880;2023-12-29T08:03:38;99639.34;;;4.82;83.98
77706;BME280;66874;45.274;5.880;2023-12-29T08:06:04;99643.72;;;4.86;84.19
77706;BME280;66874;45.274;5.880;2023-12-29T08:08:30;99640.31;;;4.90;84.03
77706;BME280;66874;45.274;5.880;2023-12-29T08:10:55;99638.56;;;4.90;84.17
77706;BME280;66874;45.274;5.880;2023-12-29T08:13:21;99644.66;;;4.93;84.27
77706;BME280;66874;45.274;5.880;2023-12-29T08:15:46;99641.22;;;4.95;84.24
77706;BME280;66874;45.274;5.880;2023-12-29T08:18:12;99643.91;;;5.00;84.12
77706;BME280;66874;45.274;5.880;2023-12-29T08:20:38;99649.13;;;5.04;84.21
77706;BME280;66874;45.274;5.880;2023-12-29T08:23:03;99650.03;;;5.08;84.29
77706;BME280;66874;45.274;5.880;2023-12-29T08:25:29;99649.19;;;5.09;84.26
77706;BME280;66874;45.274;5.880;2023-12-29T08:27:56;99648.38;;;5.14;84.15
77706;BME280;66874;45.274;5.880;2023-12-29T08:30:21;99650.13;;;5.16;84.21
77706;BME280;66874;45.274;5.880;2023-12-29T08:32:46;99644.94;;;5.17;84.23
77706;BME280;66874;45.274;5.880;2023-12-29T08:35:12;99648.47;;;5.21;84.22
77706;BME280;66874;45.274;5.880;2023-12-29T08:37:37;99658.06;;;5.28;84.20
77706;BME280;66874;45.274;5.880;2023-12-29T08:40:03;99664.16;;;5.31;84.11
77706;BME280;66874;45.274;5.880;2023-12-29T08:42:28;99669.34;;;5.31;83.92
77706;BME280;66874;45.274;5.880;2023-12-29T08:44:54;99670.22;;;5.33;84.05
77706;BME280;66874;45.274;5.880;2023-12-29T08:47:19;99674.56;;;5.36;84.04
77706;BME280;66874;45.274;5.880;2023-12-29T08:49:45;99673.72;;;5.35;84.29
77706;BME280;66874;45.274;5.880;2023-12-29T08:52:11;99670.22;;;5.33;84.06
77706;BME280;66874;45.274;5.880;2023-12-29T08:54:37;99672.84;;;5.35;83.83
77706;BME280;66874;45.274;5.880;2023-12-29T08:57:03;99665.97;;;5.38;83.90
77706;BME280;66874;45.274;5.880;2023-12-29T08:59:28;99667.66;;;5.38;83.99
77706;BME280;66874;45.274;5.880;2023-12-29T09:01:54;99674.56;;;5.37;83.99
77706;BME280;66874;45.274;5.880;2023-12-29T09:04:19;99671.16;;;5.40;84.16
77706;BME280;66874;45.274;5.880;2023-12-29T09:06:45;99677.28;;;5.47;83.88
77706;BME280;66874;45.274;5.880;2023-12-29T09:09:10;99674.75;;;5.50;83.99
77706;BME280;66874;45.274;5.880;2023-12-29T09:11:38;99674.81;;;5.57;83.91
77706;BME280;66874;45.274;5.880;2023-12-29T09:14:04;99674.00;;;5.63;83.75
77706;BME280;66874;45.274;5.880;2023-12-29T09:16:30;99668.03;;;5.70;83.67
77706;BME280;66874;45.274;5.880;2023-12-29T09:18:55;99664.63;;;5.79;83.68
77706;BME280;66874;45.274;5.880;2023-12-29T09:21:20;99659.53;;;5.86;83.42
77706;BME280;66874;45.274;5.880;2023-12-29T09:23:46;99663.94;;;5.94;83.45
77706;BME280;66874;45.274;5.880;2023-12-29T09:26:12;99655.38;;;6.02;83.25
77706;BME280;66874;45.274;5.880;2023-12-29T09:28:37;99658.03;;;6.10;83.04
77706;BME280;66874;45.274;5.880;2023-12-29T09:31:03;99656.31;;;6.14;83.16
77706;BME280;66874;45.274;5.880;2023-12-29T09:33:28;99660.66;;;6.15;83.05
77706;BME280;66874;45.274;5.880;2023-12-29T09:35:54;99660.72;;;6.21;83.04
77706;BME280;66874;45.274;5.880;2023-12-29T09:38:19;99659.03;;;6.24;82.90
77706;BME280;66874;45.274;5.880;2023-12-29T09:40:45;99662.50;;;6.28;83.04
77706;BME280;66874;45.274;5.880;2023-12-29T09:43:12;99678.09;;;6.29;82.91
77706;BME280;66874;45.274;5.880;2023-12-29T09:45:38;99678.09;;;6.29;82.81
77706;BME280;66874;45.274;5.880;2023-12-29T09:48:08;99675.53;;;6.31;82.81
77706;BME280;66874;45.274;5.880;2023-12-29T09:50:37;99671.22;;;6.34;82.88
77706;BME280;66874;45.274;5.880;2023-12-29T09:53:04;99666.91;;;6.36;82.86
77706;BME280;66874;45.274;5.880;2023-12-29T09:55:30;99670.38;;;6.42;82.74
77706;BME280;66874;45.274;5.880;2023-12-29T09:57:58;99675.59;;;6.42;82.60
77706;BME280;66874;45.274;5.880;2023-12-29T10:00:25;99668.66;;;6.39;82.51
77706;BME280;66874;45.274;5.880;2023-12-29T10:02:51;99672.16;;;6.43;82.73
77706;BME280;66874;45.274;5.880;2023-12-29T10:05:20;99677.41;;;6.50;82.75
77706;BME280;66874;45.274;5.880;2023-12-29T10:07:46;99675.69;;;6.57;82.50
77706;BME280;66874;45.274;5.880;2023-12-29T10:10:15;99675.81;;;6.74;82.58
77706;BME280;66874;45.274;5.880;2023-12-29T10:12:47;99676.84;;;7.05;82.16
77706;BME280;66874;45.274;5.880;2023-12-29T10:15:20;99670.84;;;7.18;81.83
77706;BME280;66874;45.274;5.880;2023-12-29T10:18:22;99663.94;;;7.28;81.67
77706;BME280;66874;45.274;5.880;2023-12-29T10:20:58;99657.03;;;7.38;81.40
77706;BME280;66874;45.274;5.880;2023-12-29T10:23:49;99670.09;;;7.50;81.18
77706;BME280;66874;45.274;5.880;2023-12-29T10:26:16;99669.19;;;7.42;80.90
77706;BME280;66874;45.274;5.880;2023-12-29T10:28:43;99658.75;;;7.34;80.92
77706;BME280;66874;45.274;5.880;2023-12-29T10:31:09;99648.31;;;7.26;81.07
77706;BME280;66874;45.274;5.880;2023-12-29T10:33:40;99654.38;;;7.25;81.20
77706;BME280;66874;45.274;5.880;2023-12-29T10:36:05;99647.47;;;7.37;81.34
77706;BME280;66874;45.274;5.880;2023-12-29T10:38:33;99642.38;;;7.79;81.17
77706;BME280;66874;45.274;5.880;2023-12-29T10:41:18;99638.91;;;8.31;80.06
77706;BME280;66874;45.274;5.880;2023-12-29T10:43:46;99629.34;;;8.31;79.41
77706;BME280;66874;45.274;5.880;2023-12-29T10:46:17;99627.63;;;8.30;79.26
77706;BME280;66874;45.274;5.880;2023-12-29T10:48:42;99623.28;;;8.26;79.37
77706;BME280;66874;45.274;5.880;2023-12-29T10:51:08;99619.81;;;8.21;79.28
77706;BME280;66874;45.274;5.880;2023-12-29T10:53:35;99620.69;;;8.19;79.40
77706;BME280;66874;45.274;5.880;2023-12-29T10:56:01;99613.72;;;8.22;79.48
77706;BME280;66874;45.274;5.880;2023-12-29T10:58:30;99606.78;;;8.38;79.42
77706;BME280;66874;45.274;5.880;2023-12-29T11:00:56;99604.91;;;8.83;79.00
77706;BME280;66874;45.274;5.880;2023-12-29T11:03:22;99588.97;;;9.44;78.24
77706;BME280;66874;45.274;5.880;2023-12-29T11:05:48;99583.31;;;10.01;77.17
77706;BME280;66874;45.274;5.880;2023-12-29T11:08:19;99579.50;;;10.42;76.19
77706;BME280;66874;45.274;5.880;2023-12-29T11:10:46;99577.41;;;10.71;75.45
77706;BME280;66874;45.274;5.880;2023-12-29T11:13:12;99565.72;;;11.02;74.63
77706;BME280;66874;45.274;5.880;2023-12-29T11:15:44;99556.72;;;11.22;74.40
77706;BME280;66874;45.274;5.880;2023-12-29T11:18:15;99555.34;;;11.57;73.84
77706;BME280;66874;45.274;5.880;2023-12-29T11:20:45;99546.81;;;12.00;73.12
77706;BME280;66874;45.274;5.880;2023-12-29T11:23:12;99538.19;;;12.40;72.31
77706;BME280;66874;45.274;5.880;2023-12-29T11:25:44;99532.66;;;12.55;71.85
77706;BME280;66874;45.274;5.880;2023-12-29T11:28:11;99526.09;;;12.78;71.28
77706;BME280;66874;45.274;5.880;2023-12-29T11:30:39;99509.72;;;13.05;70.89
77706;BME280;66874;45.274;5.880;2023-12-29T11:33:12;99508.34;;;13.29;70.22
77706;BME280;66874;45.274;5.880;2023-12-29T11:35:51;99502.53;;;13.52;69.53
77706;BME280;66874;45.274;5.880;2023-12-29T11:38:26;99493.22;;;13.76;68.91
77706;BME280;66874;45.274;5.880;2023-12-29T11:43:32;99483.97;;;14.27;68.14
77706;BME280;66874;45.274;5.880;2023-12-29T11:45:57;99478.16;;;14.14;67.55
77706;BME280;66874;45.274;5.880;2023-12-29T11:48:54;99474.22;;;14.30;67.26
77706;BME280;66874;45.274;5.880;2023-12-29T11:51:49;99458.88;;;14.46;67.14
77706;BME280;66874;45.274;5.880;2023-12-29T11:54:40;99450.13;;;14.75;66.49
77706;BME280;66874;45.274;5.880;2023-12-29T11:57:07;99442.13;;;15.08;66.86
77706;BME280;66874;45.274;5.880;2023-12-29T11:59:46;99437.78;;;15.60;65.95
77706;BME280;66874;45.274;5.880;2023-12-29T12:02:27;99431.59;;;16.36;64.28
77706;BME280;66874;45.274;5.880;2023-12-29T12:04:53;99423.44;;;17.33;62.89
77706;BME280;66874;45.274;5.880;2023-12-29T12:09:46;99404.66;;;18.81;59.07
77706;BME280;66874;45.274;5.880;2023-12-29T12:12:14;99397.41;;;19.20;58.46
77706;BME280;66874;45.274;5.880;2023-12-29T12:20:04;99382.72;;;20.17;54.96
77706;BME280;66874;45.274;5.880;2023-12-29T12:22:31;99368.47;;;20.36;54.05
77706;BME280;66874;45.274;5.880;2023-12-29T12:24:58;99368.19;;;20.73;53.09
77706;BME280;66874;45.274;5.880;2023-12-29T12:27:26;99364.13;;;20.82;52.21
77706;BME280;66874;45.274;5.880;2023-12-29T12:29:55;99363.00;;;21.02;52.01
77706;BME280;66874;45.274;5.880;2023-12-29T12:32:23;99356.63;;;21.20;51.24
77706;BME280;66874;45.274;5.880;2023-12-29T12:34:49;99347.25;;;21.59;50.16
77706;BME280;66874;45.274;5.880;2023-12-29T12:37:25;99337.13;;;21.94;49.38
77706;BME280;66874;45.274;5.880;2023-12-29T12:39:51;99335.38;;;22.38;48.57
77706;BME280;66874;45.274;5.880;2023-12-29T12:42:17;99330.38;;;22.60;47.48
77706;BME280;66874;45.274;5.880;2023-12-29T12:45:01;99328.81;;;22.15;47.75
77706;BME280;66874;45.274;5.880;2023-12-29T12:47:45;99326.13;;;21.42;48.85
77706;BME280;66874;45.274;5.880;2023-12-29T12:50:12;99330.44;;;20.83;49.85
77706;BME280;66874;45.274;5.880;2023-12-29T12:52:39;99326.38;;;20.44;50.52
77706;BME280;66874;45.274;5.880;2023-12-29T12:55:06;99317.44;;;20.29;51.08
77706;BME280;66874;45.274;5.880;2023-12-29T12:57:32;99318.88;;;20.52;50.66
77706;BME280;66874;45.274;5.880;2023-12-29T12:59:59;99317.72;;;21.04;50.09
77706;BME280;66874;45.274;5.880;2023-12-29T13:02:25;99293.56;;;21.81;48.58
77706;BME280;66874;45.274;5.880;2023-12-29T13:04:51;99292.59;;;22.39;47.03
77706;BME280;66874;45.274;5.880;2023-12-29T13:07:18;99300.22;;;21.74;46.30
77706;BME280;66874;45.274;5.880;2023-12-29T13:09:45;99305.06;;;20.61;47.47
77706;BME280;66874;45.274;5.880;2023-12-29T13:12:12;99310.91;;;19.70;48.43
77706;BME280;66874;45.274;5.880;2023-12-29T13:14:38;99311.03;;;18.80;49.90
77706;BME280;66874;45.274;5.880;2023-12-29T13:17:11;99311.84;;;18.07;51.12
77706;BME280;66874;45.274;5.880;2023-12-29T13:19:37;99320.88;;;17.62;52.03
77706;BME280;66874;45.274;5.880;2023-12-29T13:22:07;99323.03;;;17.31;52.64